sensor_id;sensor_type;location;lat;lon;timestamp;P1;durP1;ratioP1;P2;durP2;ratioP2
3841;SDS011;1936;47.074;15.336;2024-02-14T00:00:51;4.40;;;1.08;;
3841;SDS011;1936;47.074;15.336;2024-02-14T00:02:54;2.13;;;1.00;;
3841;SDS011;1936;47.074;15.336;2024-02-14T00:04:58;3.92;;;1.00;;
3841;SDS011;1936;47.074;15.336;2024-02-14T00:07:01;0.88;;;0.60;;
3841;SDS011;1936;47.074;15.336;2024-02-14T00:09:05;1.65;;;0.82;;
3841;SDS011;1936;47.074;15.336;2024-02-14T00:11:09;0.98;;;0.70;;
3841;SDS011;1936;47.074;15.336;2024-02-14T00:13:14;3.00;;;0.70;;
3841;SDS011;1936;47.074;15.336;2024-02-14T00:15:19;3.00;;;1.05;;
3841;SDS011;1936;47.074;15.336;2024-02-14T00:17:23;2.25;;;0.80;;
3841;SDS011;1936;47.074;15.336;2024-02-14T00:19:27;2.13;;;0.77;;
3841;SDS011;1936;47.074;15.336;2024-02-14T00:21:30;1.00;;;0.73;;
3841;SDS011;1936;47.074;15.336;2024-02-14T00:23:35;1.42;;;0.80;;
3841;SDS011;1936;47.074;15.336;2024-02-14T00:25:39;0.70;;;0.70;;
3841;SDS011;1936;47.074;15.336;2024-02-14T00:27:42;1.35;;;1.25;;
3841;SDS011;1936;47.074;15.336;2024-02-14T00:29:47;1.08;;;0.98;;
3841;SDS011;1936;47.074;15.336;2024-02-14T00:31:49;2.55;;;1.02;;
3841;SDS011;1936;47.074;15.336;2024-02-14T00:33:53;0.70;;;0.70;;
3841;SDS011;1936;47.074;15.336;2024-02-14T00:35:56;1.10;;;0.80;;
3841;SDS011;1936;47.074;15.336;2024-02-14T00:38:00;1.02;;;0.70;;
3841;SDS011;1936;47.074;15.336;2024-02-14T00:40:04;1.20;;;0.70;;
3841;SDS011;1936;47.074;15.336;2024-02-14T00:42:08;1.48;;;0.77;;
3841;SDS011;1936;47.074;15.336;2024-02-14T00:44:12;0.50;;;0.45;;
3841;SDS011;1936;47.074;15.336;2024-02-14T00:46:19;0.75;;;0.70;;
3841;SDS011;1936;47.074;15.336;2024-02-14T00:48:23;3.65;;;0.60;;
3841;SDS011;1936;47.074;15.336;2024-02-14T00:50:26;2.83;;;0.77;;
3841;SDS011;1936;47.074;15.336;2024-02-14T00:52:30;2.38;;;1.08;;
3841;SDS011;1936;47.074;15.336;2024-02-14T00:54:32;1.25;;;0.90;;
3841;SDS011;1936;47.074;15.336;2024-02-14T00:56:36;1.42;;;0.60;;
3841;SDS011;1936;47.074;15.336;2024-02-14T00:58:39;1.33;;;0.80;;
3841;SDS011;1936;47.074;15.336;2024-02-14T01:00:42;1.52;;;0.85;;
3841;SDS011;1936;47.074;15.336;2024-02-14T01:02:46;2.40;;;1.00;;
3841;SDS011;1936;47.074;15.336;2024-02-14T01:04:50;0.80;;;0.70;;
3841;SDS011;1936;47.074;15.336;2024-02-14T01:06:53;2.92;;;0.85;;
3841;SDS011;1936;47.074;15.336;2024-02-14T01:08:56;0.70;;;0.70;;
3841;SDS011;1936;47.074;15.336;2024-02-14T01:11:00;1.15;;;0.80;;
3841;SDS011;1936;47.074;15.336;2024-02-14T01:13:02;0.93;;;0.82;;
3841;SDS011;1936;47.074;15.336;2024-02-14T01:15:06;1.40;;;1.10;;
3841;SDS011;1936;47.074;15.336;2024-02-14T01:17:10;3.35;;;0.90;;
3841;SDS011;1936;47.074;15.336;2024-02-14T01:19:15;2.83;;;0.82;;
3841;SDS011;1936;47.074;15.336;2024-02-14T01:21:21;1.70;;;0.90;;
3841;SDS011;1936;47.074;15.336;2024-02-14T01:23:24;0.90;;;0.70;;
3841;SDS011;1936;47.074;15.336;2024-02-14T01:25:27;4.82;;;1.50;;
3841;SDS011;1936;47.074;15.336;2024-02-14T01:27:30;6.50;;;0.63;;
3841;SDS011;1936;47.074;15.336;2024-02-14T01:29:34;2.10;;;0.63;;
3841;SDS011;1936;47.074;15.336;2024-02-14T01:31:37;0.70;;;0.70;;
3841;SDS011;1936;47.074;15.336;2024-02-14T01:33:41;1.25;;;1.00;;
3841;SDS011;1936;47.074;15.336;2024-02-14T01:35:46;1.90;;;0.63;;
3841;SDS011;1936;47.074;15.336;2024-02-14T01:37:50;1.20;;;0.70;;
3841;SDS011;1936;47.074;15.336;2024-02-14T01:39:54;1.95;;;1.05;;
3841;SDS011;1936;47.074;15.336;2024-02-14T01:41:57;2.67;;;1.13;;
3841;SDS011;1936;47.074;15.336;2024-02-14T01:44:00;1.13;;;0.70;;
3841;SDS011;1936;47.074;15.336;2024-02-14T01:46:04;0.80;;;0.60;;
3841;SDS011;1936;47.074;15.336;2024-02-14T01:48:09;1.25;;;0.82;;
3841;SDS011;1936;47.074;15.336;2024-02-14T01:50:13;2.88;;;1.00;;
3841;SDS011;1936;47.074;15.336;2024-02-14T01:52:18;1.90;;;0.80;;
3841;SDS011;1936;47.074;15.336;2024-02-14T01:54:20;1.10;;;0.85;;
3841;SDS011;1936;47.074;15.336;2024-02-14T01:56:24;3.20;;;0.77;;
3841;SDS011;1936;47.074;15.336;2024-02-14T01:58:29;0.88;;;0.70;;
3841;SDS011;1936;47.074;15.336;2024-02-14T02:00:33;5.32;;;1.00;;
3841;SDS011;1936;47.074;15.336;2024-02-14T02:02:38;4.80;;;0.85;;
3841;SDS011;1936;47.074;15.336;2024-02-14T02:04:41;1.35;;;0.80;;
3841;SDS011;1936;47.074;15.336;2024-02-14T02:06:45;1.50;;;0.95;;
3841;SDS011;1936;47.074;15.336;2024-02-14T02:08:49;2.17;;;0.95;;
3841;SDS011;1936;47.074;15.336;2024-02-14T02:10:52;1.10;;;0.90;;
3841;SDS011;1936;47.074;15.336;2024-02-14T02:12:57;2.08;;;1.10;;
3841;SDS011;1936;47.074;15.336;2024-02-14T02:15:02;1.08;;;0.63;;
3841;SDS011;1936;47.074;15.336;2024-02-14T02:17:06;1.00;;;0.85;;
3841;SDS011;1936;47.074;15.336;2024-02-14T02:19:13;8.13;;;1.35;;
3841;SDS011;1936;47.074;15.336;2024-02-14T02:21:17;1.05;;;0.95;;
3841;SDS011;1936;47.074;15.336;2024-02-14T02:23:26;1.88;;;1.30;;
3841;SDS011;1936;47.074;15.336;2024-02-14T02:25:30;4.30;;;1.23;;
3841;SDS011;1936;47.074;15.336;2024-02-14T02:27:32;3.20;;;1.10;;
3841;SDS011;1936;47.074;15.336;2024-02-14T02:29:39;6.40;;;1.23;;
3841;SDS011;1936;47.074;15.336;2024-02-14T02:31:42;2.80;;;1.25;;
3841;SDS011;1936;47.074;15.336;2024-02-14T02:33:45;4.35;;;0.80;;
3841;SDS011;1936;47.074;15.336;2024-02-14T02:35:49;3.25;;;0.90;;
3841;SDS011;1936;47.074;15.336;2024-02-14T02:37:53;1.05;;;0.95;;
3841;SDS011;1936;47.074;15.336;2024-02-14T02:39:58;2.25;;;1.23;;
3841;SDS011;1936;47.074;15.336;2024-02-14T02:42:01;0.60;;;0.60;;
3841;SDS011;1936;47.074;15.336;2024-02-14T02:44:05;2.95;;;1.08;;
3841;SDS011;1936;47.074;15.336;2024-02-14T02:46:08;3.63;;;1.00;;
3841;SDS011;1936;47.074;15.336;2024-02-14T02:48:12;1.15;;;0.70;;
3841;SDS011;1936;47.074;15.336;2024-02-14T02:50:16;1.40;;;0.75;;
3841;SDS011;1936;47.074;15.336;2024-02-14T02:52:18;3.85;;;1.98;;
3841;SDS011;1936;47.074;15.336;2024-02-14T02:54:22;1.63;;;1.40;;
3841;SDS011;1936;47.074;15.336;2024-02-14T02:56:26;1.80;;;1.48;;
3841;SDS011;1936;47.074;15.336;2024-02-14T02:58:31;2.00;;;1.15;;
3841;SDS011;1936;47.074;15.336;2024-02-14T03:00:35;0.80;;;0.80;;
3841;SDS011;1936;47.074;15.336;2024-02-14T03:02:40;2.10;;;0.95;;
3841;SDS011;1936;47.074;15.336;2024-02-14T03:04:47;1.20;;;0.82;;
3841;SDS011;1936;47.074;15.336;2024-02-14T03:06:54;1.20;;;0.77;;
3841;SDS011;1936;47.074;15.336;2024-02-14T03:09:09;4.75;;;0.82;;
3841;SDS011;1936;47.074;15.336;2024-02-14T03:11:15;3.15;;;1.10;;
3841;SDS011;1936;47.074;15.336;2024-02-14T03:13:21;1.33;;;1.05;;
3841;SDS011;1936;47.074;15.336;2024-02-14T03:15:26;0.85;;;0.50;;
3841;SDS011;1936;47.074;15.336;2024-02-14T03:17:30;1.40;;;1.02;;
3841;SDS011;1936;47.074;15.336;2024-02-14T03:19:33;1.08;;;0.90;;
3841;SDS011;1936;47.074;15.336;2024-02-14T03:21:47;2.80;;;0.88;;
3841;SDS011;1936;47.074;15.336;2024-02-14T03:24:01;0.95;;;0.82;;
3841;SDS011;1936;47.074;15.336;2024-02-14T03:26:17;0.80;;;0.70;;
3841;SDS011;1936;47.074;15.336;2024-02-14T03:28:34;1.33;;;1.23;;
3841;SDS011;1936;47.074;15.336;2024-02-14T03:31:11;0.93;;;0.80;;
3841;SDS011;1936;47.074;15.336;2024-02-14T03:34:21;1.90;;;1.30;;
3841;SDS011;1936;47.074;15.336;2024-02-14T03:37:28;3.47;;;1.27;;
3841;SDS011;1936;47.074;15.336;2024-02-14T03:39:32;1.08;;;0.95;;
3841;SDS011;1936;47.074;15.336;2024-02-14T03:41:36;2.47;;;1.38;;
3841;SDS011;1936;47.074;15.336;2024-02-14T03:43:42;3.85;;;1.10;;
3841;SDS011;1936;47.074;15.336;2024-02-14T03:45:45;0.90;;;0.75;;
3841;SDS011;1936;47.074;15.336;2024-02-14T03:47:49;1.30;;;0.88;;
3841;SDS011;1936;47.074;15.336;2024-02-14T03:49:52;1.10;;;0.93;;
3841;SDS011;1936;47.074;15.336;2024-02-14T03:51:56;1.00;;;0.90;;
3841;SDS011;1936;47.074;15.336;2024-02-14T03:53:59;0.80;;;0.70;;
3841;SDS011;1936;47.074;15.336;2024-02-14T03:56:03;3.45;;;1.05;;
3841;SDS011;1936;47.074;15.336;2024-02-14T03:58:08;1.15;;;0.98;;
3841;SDS011;1936;47.074;15.336;2024-02-14T04:00:14;1.45;;;1.00;;
3841;SDS011;1936;47.074;15.336;2024-02-14T04:02:18;1.48;;;1.15;;
3841;SDS011;1936;47.074;15.336;2024-02-14T04:04:21;1.35;;;1.25;;
3841;SDS011;1936;47.074;15.336;2024-02-14T04:06:25;2.13;;;1.35;;
3841;SDS011;1936;47.074;15.336;2024-02-14T04:08:29;3.13;;;2.10;;
3841;SDS011;1936;47.074;15.336;2024-02-14T04:10:32;3.50;;;1.50;;
3841;SDS011;1936;47.074;15.336;2024-02-14T04:12:36;3.40;;;1.00;;
3841;SDS011;1936;47.074;15.336;2024-02-14T04:14:42;2.35;;;1.48;;
3841;SDS011;1936;47.074;15.336;2024-02-14T04:16:47;2.75;;;1.70;;
3841;SDS011;1936;47.074;15.336;2024-02-14T04:18:50;2.75;;;1.10;;
3841;SDS011;1936;47.074;15.336;2024-02-14T04:20:55;2.65;;;1.77;;
3841;SDS011;1936;47.074;15.336;2024-02-14T04:22:58;3.45;;;2.05;;
3841;SDS011;1936;47.074;15.336;2024-02-14T04:25:02;2.83;;;1.83;;
3841;SDS011;1936;47.074;15.336;2024-02-14T04:27:04;1.88;;;1.55;;
3841;SDS011;1936;47.074;15.336;2024-02-14T04:29:08;2.55;;;1.98;;
3841;SDS011;1936;47.074;15.336;2024-02-14T04:31:12;2.33;;;1.85;;
3841;SDS011;1936;47.074;15.336;2024-02-14T04:33:16;2.40;;;1.58;;
3841;SDS011;1936;47.074;15.336;2024-02-14T04:35:19;1.50;;;1.20;;
3841;SDS011;1936;47.074;15.336;2024-02-14T04:37:23;3.92;;;1.25;;
3841;SDS011;1936;47.074;15.336;2024-02-14T04:39:26;3.50;;;1.75;;
3841;SDS011;1936;47.074;15.336;2024-02-14T04:41:29;3.45;;;1.40;;
3841;SDS011;1936;47.074;15.336;2024-02-14T04:43:33;2.47;;;1.00;;
3841;SDS011;1936;47.074;15.336;2024-02-14T04:45:36;1.67;;;1.38;;
3841;SDS011;1936;47.074;15.336;2024-02-14T04:47:39;7.75;;;1.50;;
3841;SDS011;1936;47.074;15.336;2024-02-14T04:49:45;1.48;;;1.33;;
3841;SDS011;1936;47.074;15.336;2024-02-14T04:51:49;1.20;;;1.00;;
3841;SDS011;1936;47.074;15.336;2024-02-14T04:53:52;4.60;;;1.40;;
3841;SDS011;1936;47.074;15.336;2024-02-14T04:55:55;4.25;;;1.52;;
3841;SDS011;1936;47.074;15.336;2024-02-14T04:57:58;2.72;;;1.25;;
3841;SDS011;1936;47.074;15.336;2024-02-14T05:00:01;1.25;;;1.15;;
3841;SDS011;1936;47.074;15.336;2024-02-14T05:02:06;2.05;;;1.63;;
3841;SDS011;1936;47.074;15.336;2024-02-14T05:04:09;1.52;;;1.40;;
3841;SDS011;1936;47.074;15.336;2024-02-14T05:06:15;1.10;;;1.00;;
3841;SDS011;1936;47.074;15.336;2024-02-14T05:08:19;1.80;;;1.52;;
3841;SDS011;1936;47.074;15.336;2024-02-14T05:10:23;1.77;;;1.30;;
3841;SDS011;1936;47.074;15.336;2024-02-14T05:12:26;1.60;;;1.30;;
3841;SDS011;1936;47.074;15.336;2024-02-14T05:14:29;5.53;;;1.63;;
3841;SDS011;1936;47.074;15.336;2024-02-14T05:16:33;2.67;;;1.48;;
3841;SDS011;1936;47.074;15.336;2024-02-14T05:18:36;1.40;;;1.30;;
3841;SDS011;1936;47.074;15.336;2024-02-14T05:20:42;2.10;;;1.50;;
3841;SDS011;1936;47.074;15.336;2024-02-14T05:22:49;4.40;;;1.15;;
3841;SDS011;1936;47.074;15.336;2024-02-14T05:24:52;1.30;;;1.20;;
3841;SDS011;1936;47.074;15.336;2024-02-14T05:26:56;4.25;;;1.88;;
3841;SDS011;1936;47.074;15.336;2024-02-14T05:28:59;2.17;;;1.48;;
3841;SDS011;1936;47.074;15.336;2024-02-14T05:31:03;2.67;;;1.35;;
3841;SDS011;1936;47.074;15.336;2024-02-14T05:33:09;1.33;;;1.23;;
3841;SDS011;1936;47.074;15.336;2024-02-14T05:35:13;4.63;;;1.48;;
3841;SDS011;1936;47.074;15.336;2024-02-14T05:37:16;1.20;;;1.10;;
3841;SDS011;1936;47.074;15.336;2024-02-14T05:39:21;3.17;;;2.28;;
3841;SDS011;1936;47.074;15.336;2024-02-14T05:41:25;4.68;;;1.77;;
3841;SDS011;1936;47.074;15.336;2024-02-14T05:43:28;4.90;;;2.35;;
3841;SDS011;1936;47.074;15.336;2024-02-14T05:45:31;5.78;;;2.85;;
3841;SDS011;1936;47.074;15.336;2024-02-14T05:47:34;4.32;;;2.25;;
3841;SDS011;1936;47.074;15.336;2024-02-14T05:49:38;12.73;;;3.08;;
3841;SDS011;1936;47.074;15.336;2024-02-14T05:51:44;11.35;;;4.00;;
3841;SDS011;1936;47.074;15.336;2024-02-14T05:53:48;2.67;;;2.28;;
3841;SDS011;1936;47.074;15.336;2024-02-14T05:55:52;3.60;;;1.90;;
3841;SDS011;1936;47.074;15.336;2024-02-14T05:57:55;6.65;;;2.75;;
3841;SDS011;1936;47.074;15.336;2024-02-14T06:00:00;3.55;;;1.88;;
3841;SDS011;1936;47.074;15.336;2024-02-14T06:02:04;3.13;;;2.28;;
3841;SDS011;1936;47.074;15.336;2024-02-14T06:04:09;2.25;;;1.77;;
3841;SDS011;1936;47.074;15.336;2024-02-14T06:06:13;3.25;;;2.67;;
3841;SDS011;1936;47.074;15.336;2024-02-14T06:08:17;2.10;;;1.90;;
3841;SDS011;1936;47.074;15.336;2024-02-14T06:10:21;1.83;;;1.73;;
3841;SDS011;1936;47.074;15.336;2024-02-14T06:12:28;4.00;;;2.88;;
3841;SDS011;1936;47.074;15.336;2024-02-14T06:14:32;6.50;;;4.07;;
3841;SDS011;1936;47.074;15.336;2024-02-14T06:16:37;4.35;;;3.58;;
3841;SDS011;1936;47.074;15.336;2024-02-14T06:18:40;4.80;;;2.80;;
3841;SDS011;1936;47.074;15.336;2024-02-14T06:20:44;6.72;;;2.65;;
3841;SDS011;1936;47.074;15.336;2024-02-14T06:22:48;4.70;;;2.20;;
3841;SDS011;1936;47.074;15.336;2024-02-14T06:25:05;3.40;;;2.50;;
3841;SDS011;1936;47.074;15.336;2024-02-14T06:27:09;5.57;;;1.77;;
3841;SDS011;1936;47.074;15.336;2024-02-14T06:29:16;3.50;;;2.95;;
3841;SDS011;1936;47.074;15.336;2024-02-14T06:31:20;3.00;;;2.33;;
3841;SDS011;1936;47.074;15.336;2024-02-14T06:33:25;3.72;;;1.55;;
3841;SDS011;1936;47.074;15.336;2024-02-14T06:35:29;1.90;;;1.73;;
3841;SDS011;1936;47.074;15.336;2024-02-14T06:37:33;4.50;;;2.33;;
3841;SDS011;1936;47.074;15.336;2024-02-14T06:39:49;2.75;;;2.10;;
3841;SDS011;1936;47.074;15.336;2024-02-14T06:41:53;4.60;;;1.55;;
3841;SDS011;1936;47.074;15.336;2024-02-14T06:43:56;2.58;;;1.80;;
3841;SDS011;1936;47.074;15.336;2024-02-14T06:46:01;2.50;;;1.92;;
3841;SDS011;1936;47.074;15.336;2024-02-14T06:48:05;2.08;;;1.83;;
3841;SDS011;1936;47.074;15.336;2024-02-14T06:50:10;7.00;;;1.98;;
3841;SDS011;1936;47.074;15.336;2024-02-14T06:52:14;2.38;;;1.75;;
3841;SDS011;1936;47.074;15.336;2024-02-14T06:54:17;1.83;;;1.63;;
3841;SDS011;1936;47.074;15.336;2024-02-14T06:56:21;3.45;;;1.90;;
3841;SDS011;1936;47.074;15.336;2024-02-14T06:58:24;4.07;;;1.30;;
3841;SDS011;1936;47.074;15.336;2024-02-14T07:00:28;6.13;;;2.10;;
3841;SDS011;1936;47.074;15.336;2024-02-14T07:02:32;7.38;;;2.30;;
3841;SDS011;1936;47.074;15.336;2024-02-14T07:04:35;5.80;;;2.20;;
3841;SDS011;1936;47.074;15.336;2024-02-14T07:06:39;2.25;;;1.65;;
3841;SDS011;1936;47.074;15.336;2024-02-14T07:08:43;4.90;;;2.10;;
3841;SDS011;1936;47.074;15.336;2024-02-14T07:10:47;5.18;;;2.05;;
3841;SDS011;1936;47.074;15.336;2024-02-14T07:12:50;2.72;;;2.35;;
3841;SDS011;1936;47.074;15.336;2024-02-14T07:14:54;1.67;;;1.58;;
3841;SDS011;1936;47.074;15.336;2024-02-14T07:16:58;3.10;;;1.75;;
3841;SDS011;1936;47.074;15.336;2024-02-14T07:19:03;5.85;;;2.28;;
3841;SDS011;1936;47.074;15.336;2024-02-14T07:21:06;2.40;;;1.88;;
3841;SDS011;1936;47.074;15.336;2024-02-14T07:23:10;3.45;;;2.13;;
3841;SDS011;1936;47.074;15.336;2024-02-14T07:25:12;1.75;;;1.33;;
3841;SDS011;1936;47.074;15.336;2024-02-14T07:27:16;3.92;;;2.22;;
3841;SDS011;1936;47.074;15.336;2024-02-14T07:29:19;6.55;;;1.60;;
3841;SDS011;1936;47.074;15.336;2024-02-14T07:31:23;2.15;;;1.45;;
3841;SDS011;1936;47.074;15.336;2024-02-14T07:33:31;3.55;;;3.25;;
3841;SDS011;1936;47.074;15.336;2024-02-14T07:35:36;5.10;;;1.75;;
3841;SDS011;1936;47.074;15.336;2024-02-14T07:37:40;3.13;;;1.80;;
3841;SDS011;1936;47.074;15.336;2024-02-14T07:39:44;6.40;;;1.75;;
3841;SDS011;1936;47.074;15.336;2024-02-14T07:41:48;3.75;;;2.08;;
3841;SDS011;1936;47.074;15.336;2024-02-14T07:43:51;1.65;;;1.27;;
3841;SDS011;1936;47.074;15.336;2024-02-14T07:45:54;3.97;;;1.73;;
3841;SDS011;1936;47.074;15.336;2024-02-14T07:47:57;1.10;;;0.90;;
3841;SDS011;1936;47.074;15.336;2024-02-14T07:50:00;5.67;;;1.80;;
3841;SDS011;1936;47.074;15.336;2024-02-14T07:52:06;2.93;;;1.57;;
3841;SDS011;1936;47.074;15.336;2024-02-14T07:54:09;2.30;;;1.23;;
3841;SDS011;1936;47.074;15.336;2024-02-14T07:56:13;3.53;;;1.30;;
3841;SDS011;1936;47.074;15.336;2024-02-14T07:58:19;1.53;;;1.13;;
3841;SDS011;1936;47.074;15.336;2024-02-14T08:00:23;3.70;;;1.70;;
3841;SDS011;1936;47.074;15.336;2024-02-14T08:02:26;5.03;;;1.50;;
3841;SDS011;1936;47.074;15.336;2024-02-14T08:04:31;1.70;;;1.13;;
3841;SDS011;1936;47.074;15.336;2024-02-14T08:06:34;4.90;;;1.10;;
3841;SDS011;1936;47.074;15.336;2024-02-14T08:08:39;2.20;;;1.50;;
3841;SDS011;1936;47.074;15.336;2024-02-14T08:10:43;2.03;;;1.80;;
3841;SDS011;1936;47.074;15.336;2024-02-14T08:12:46;1.20;;;0.93;;
3841;SDS011;1936;47.074;15.336;2024-02-14T08:14:50;1.70;;;1.60;;
3841;SDS011;1936;47.074;15.336;2024-02-14T08:16:53;2.03;;;1.47;;
3841;SDS011;1936;47.074;15.336;2024-02-14T08:18:57;1.80;;;1.23;;
3841;SDS011;1936;47.074;15.336;2024-02-14T08:21:02;1.70;;;1.20;;
3841;SDS011;1936;47.074;15.336;2024-02-14T08:23:05;2.53;;;1.40;;
3841;SDS011;1936;47.074;15.336;2024-02-14T08:25:10;3.63;;;1.57;;
3841;SDS011;1936;47.074;15.336;2024-02-14T08:27:14;2.33;;;1.77;;
3841;SDS011;1936;47.074;15.336;2024-02-14T08:29:18;3.33;;;1.43;;
3841;SDS011;1936;47.074;15.336;2024-02-14T08:31:22;1.73;;;1.10;;
3841;SDS011;1936;47.074;15.336;2024-02-14T08:33:25;1.53;;;1.40;;
3841;SDS011;1936;47.074;15.336;2024-02-14T08:35:29;1.60;;;1.13;;
3841;SDS011;1936;47.074;15.336;2024-02-14T08:37:35;3.77;;;1.40;;
3841;SDS011;1936;47.074;15.336;2024-02-14T08:39:39;4.60;;;1.53;;
3841;SDS011;1936;47.074;15.336;2024-02-14T08:41:44;2.70;;;1.67;;
3841;SDS011;1936;47.074;15.336;2024-02-14T08:43:48;2.20;;;1.30;;
3841;SDS011;1936;47.074;15.336;2024-02-14T08:45:52;5.60;;;2.03;;
3841;SDS011;1936;47.074;15.336;2024-02-14T08:47:54;2.10;;;1.30;;
3841;SDS011;1936;47.074;15.336;2024-02-14T08:49:58;7.90;;;1.90;;
3841;SDS011;1936;47.074;15.336;2024-02-14T08:52:02;4.70;;;2.07;;
3841;SDS011;1936;47.074;15.336;2024-02-14T08:54:08;2.33;;;1.40;;
3841;SDS011;1936;47.074;15.336;2024-02-14T08:56:13;2.67;;;1.70;;
3841;SDS011;1936;47.074;15.336;2024-02-14T08:58:18;3.83;;;1.40;;
3841;SDS011;1936;47.074;15.336;2024-02-14T09:00:23;3.77;;;1.23;;
3841;SDS011;1936;47.074;15.336;2024-02-14T09:02:27;1.80;;;1.53;;
3841;SDS011;1936;47.074;15.336;2024-02-14T09:04:31;2.63;;;1.33;;
3841;SDS011;1936;47.074;15.336;2024-02-14T09:06:35;1.93;;;1.13;;
3841;SDS011;1936;47.074;15.336;2024-02-14T09:08:40;2.23;;;1.70;;
3841;SDS011;1936;47.074;15.336;2024-02-14T09:10:46;4.93;;;1.23;;
3841;SDS011;1936;47.074;15.336;2024-02-14T09:12:51;2.63;;;1.77;;
3841;SDS011;1936;47.074;15.336;2024-02-14T09:14:57;3.03;;;1.50;;
3841;SDS011;1936;47.074;15.336;2024-02-14T09:16:59;2.07;;;1.40;;
3841;SDS011;1936;47.074;15.336;2024-02-14T09:19:03;1.27;;;0.93;;
3841;SDS011;1936;47.074;15.336;2024-02-14T09:21:09;6.83;;;1.50;;
3841;SDS011;1936;47.074;15.336;2024-02-14T09:23:13;1.40;;;0.90;;
3841;SDS011;1936;47.074;15.336;2024-02-14T09:25:21;0.93;;;0.80;;
3841;SDS011;1936;47.074;15.336;2024-02-14T09:27:26;2.17;;;1.00;;
3841;SDS011;1936;47.074;15.336;2024-02-14T09:29:30;2.20;;;0.80;;
3841;SDS011;1936;47.074;15.336;2024-02-14T09:31:34;0.90;;;0.73;;
3841;SDS011;1936;47.074;15.336;2024-02-14T09:33:37;8.87;;;1.67;;
3841;SDS011;1936;47.074;15.336;2024-02-14T09:35:42;1.80;;;1.40;;
3841;SDS011;1936;47.074;15.336;2024-02-14T09:37:46;1.90;;;1.10;;
3841;SDS011;1936;47.074;15.336;2024-02-14T09:39:49;1.47;;;1.03;;
3841;SDS011;1936;47.074;15.336;2024-02-14T09:41:52;2.23;;;1.10;;
3841;SDS011;1936;47.074;15.336;2024-02-14T09:43:59;1.63;;;1.07;;
3841;SDS011;1936;47.074;15.336;2024-02-14T09:46:02;1.37;;;0.83;;
3841;SDS011;1936;47.074;15.336;2024-02-14T09:48:06;2.50;;;1.20;;
3841;SDS011;1936;47.074;15.336;2024-02-14T09:50:11;1.63;;;1.27;;
3841;SDS011;1936;47.074;15.336;2024-02-14T09:52:15;2.30;;;1.50;;
3841;SDS011;1936;47.074;15.336;2024-02-14T09:54:18;1.17;;;0.83;;
3841;SDS011;1936;47.074;15.336;2024-02-14T09:56:22;1.10;;;1.00;;
3841;SDS011;1936;47.074;15.336;2024-02-14T09:58:26;2.17;;;1.23;;
3841;SDS011;1936;47.074;15.336;2024-02-14T10:00:33;1.20;;;1.00;;
3841;SDS011;1936;47.074;15.336;2024-02-14T10:02:38;1.60;;;1.37;;
3841;SDS011;1936;47.074;15.336;2024-02-14T10:04:43;1.40;;;0.90;;
3841;SDS011;1936;47.074;15.336;2024-02-14T10:06:46;1.60;;;0.63;;
3841;SDS011;1936;47.074;15.336;2024-02-14T10:08:51;1.00;;;0.90;;
3841;SDS011;1936;47.074;15.336;2024-02-14T10:11:04;1.50;;;0.90;;
3841;SDS011;1936;47.074;15.336;2024-02-14T10:13:08;2.30;;;1.00;;
3841;SDS011;1936;47.074;15.336;2024-02-14T10:15:11;2.27;;;0.87;;
3841;SDS011;1936;47.074;15.336;2024-02-14T10:17:18;1.20;;;0.83;;
3841;SDS011;1936;47.074;15.336;2024-02-14T10:19:21;2.30;;;0.90;;
3841;SDS011;1936;47.074;15.336;2024-02-14T10:21:27;1.93;;;1.03;;
3841;SDS011;1936;47.074;15.336;2024-02-14T10:23:31;3.47;;;1.30;;
3841;SDS011;1936;47.074;15.336;2024-02-14T10:25:35;1.90;;;0.77;;
3841;SDS011;1936;47.074;15.336;2024-02-14T10:27:40;1.43;;;0.87;;
3841;SDS011;1936;47.074;15.336;2024-02-14T10:29:42;1.23;;;0.70;;
3841;SDS011;1936;47.074;15.336;2024-02-14T10:31:46;1.60;;;1.20;;
3841;SDS011;1936;47.074;15.336;2024-02-14T10:33:50;1.27;;;0.93;;
3841;SDS011;1936;47.074;15.336;2024-02-14T10:35:54;1.57;;;0.57;;
3841;SDS011;1936;47.074;15.336;2024-02-14T10:38:04;1.80;;;0.97;;
3841;SDS011;1936;47.074;15.336;2024-02-14T10:40:11;1.57;;;0.70;;
3841;SDS011;1936;47.074;15.336;2024-02-14T10:42:14;1.80;;;0.70;;
3841;SDS011;1936;47.074;15.336;2024-02-14T10:44:18;1.63;;;0.80;;
3841;SDS011;1936;47.074;15.336;2024-02-14T10:46:22;0.90;;;0.80;;
3841;SDS011;1936;47.074;15.336;2024-02-14T10:48:27;1.47;;;0.70;;
3841;SDS011;1936;47.074;15.336;2024-02-14T10:50:36;1.80;;;1.43;;
3841;SDS011;1936;47.074;15.336;2024-02-14T10:52:43;3.53;;;0.90;;
3841;SDS011;1936;47.074;15.336;2024-02-14T10:54:52;1.47;;;1.07;;
3841;SDS011;1936;47.074;15.336;2024-02-14T10:56:59;2.40;;;1.07;;
3841;SDS011;1936;47.074;15.336;2024-02-14T10:59:08;2.37;;;1.10;;
3841;SDS011;1936;47.074;15.336;2024-02-14T11:01:14;2.50;;;0.90;;
3841;SDS011;1936;47.074;15.336;2024-02-14T11:03:19;1.60;;;1.10;;
3841;SDS011;1936;47.074;15.336;2024-02-14T11:05:23;2.40;;;1.00;;
3841;SDS011;1936;47.074;15.336;2024-02-14T11:07:27;2.30;;;0.97;;
3841;SDS011;1936;47.074;15.336;2024-02-14T11:09:31;2.20;;;1.67;;
3841;SDS011;1936;47.074;15.336;2024-02-14T11:11:40;4.70;;;1.40;;
3841;SDS011;1936;47.074;15.336;2024-02-14T11:13:45;4.23;;;2.10;;
3841;SDS011;1936;47.074;15.336;2024-02-14T11:15:51;2.60;;;1.50;;
3841;SDS011;1936;47.074;15.336;2024-02-14T11:18:03;2.83;;;1.70;;
3841;SDS011;1936;47.074;15.336;2024-02-14T11:20:13;4.50;;;1.40;;
3841;SDS011;1936;47.074;15.336;2024-02-14T11:22:19;1.70;;;1.10;;
3841;SDS011;1936;47.074;15.336;2024-02-14T11:24:26;2.70;;;1.03;;
3841;SDS011;1936;47.074;15.336;2024-02-14T11:26:38;3.53;;;1.00;;
3841;SDS011;1936;47.074;15.336;2024-02-14T11:28:48;2.30;;;0.70;;
3841;SDS011;1936;47.074;15.336;2024-02-14T11:30:52;0.87;;;0.50;;
3841;SDS011;1936;47.074;15.336;2024-02-14T11:33:15;1.80;;;1.13;;
3841;SDS011;1936;47.074;15.336;2024-02-14T11:35:21;4.17;;;1.33;;
3841;SDS011;1936;47.074;15.336;2024-02-14T11:37:27;3.60;;;1.00;;
3841;SDS011;1936;47.074;15.336;2024-02-14T11:39:33;1.40;;;0.60;;
3841;SDS011;1936;47.074;15.336;2024-02-14T11:41:36;1.70;;;0.70;;
3841;SDS011;1936;47.074;15.336;2024-02-14T11:43:50;3.47;;;1.17;;
3841;SDS011;1936;47.074;15.336;2024-02-14T11:45:54;2.37;;;0.90;;
3841;SDS011;1936;47.074;15.336;2024-02-14T11:47:57;2.20;;;0.97;;
3841;SDS011;1936;47.074;15.336;2024-02-14T11:50:00;2.07;;;0.80;;
3841;SDS011;1936;47.074;15.336;2024-02-14T11:52:04;1.33;;;0.70;;
3841;SDS011;1936;47.074;15.336;2024-02-14T11:54:12;2.07;;;0.60;;
3841;SDS011;1936;47.074;15.336;2024-02-14T11:56:15;2.40;;;0.70;;
3841;SDS011;1936;47.074;15.336;2024-02-14T11:58:19;1.83;;;1.20;;
3841;SDS011;1936;47.074;15.336;2024-02-14T12:00:24;5.33;;;0.80;;
3841;SDS011;1936;47.074;15.336;2024-02-14T12:02:27;1.20;;;0.80;;
3841;SDS011;1936;47.074;15.336;2024-02-14T12:04:31;1.53;;;0.83;;
3841;SDS011;1936;47.074;15.336;2024-02-14T12:06:35;5.63;;;0.80;;
3841;SDS011;1936;47.074;15.336;2024-02-14T12:08:39;4.17;;;0.90;;
3841;SDS011;1936;47.074;15.336;2024-02-14T12:10:43;3.07;;;1.13;;
3841;SDS011;1936;47.074;15.336;2024-02-14T12:12:49;1.70;;;0.80;;
3841;SDS011;1936;47.074;15.336;2024-02-14T12:14:53;3.83;;;1.37;;
3841;SDS011;1936;47.074;15.336;2024-02-14T12:16:59;1.10;;;0.70;;
3841;SDS011;1936;47.074;15.336;2024-02-14T12:19:05;1.23;;;0.90;;
3841;SDS011;1936;47.074;15.336;2024-02-14T12:21:11;2.10;;;1.27;;
3841;SDS011;1936;47.074;15.336;2024-02-14T12:23:15;3.73;;;1.23;;
3841;SDS011;1936;47.074;15.336;2024-02-14T12:25:19;3.20;;;1.60;;
3841;SDS011;1936;47.074;15.336;2024-02-14T12:27:23;1.47;;;1.10;;
3841;SDS011;1936;47.074;15.336;2024-02-14T12:29:25;1.80;;;1.27;;
3841;SDS011;1936;47.074;15.336;2024-02-14T12:31:29;5.83;;;1.20;;
3841;SDS011;1936;47.074;15.336;2024-02-14T12:33:34;2.70;;;1.30;;
3841;SDS011;1936;47.074;15.336;2024-02-14T12:35:41;2.43;;;1.13;;
3841;SDS011;1936;47.074;15.336;2024-02-14T12:37:45;1.73;;;0.93;;
3841;SDS011;1936;47.074;15.336;2024-02-14T12:39:49;3.60;;;0.93;;
3841;SDS011;1936;47.074;15.336;2024-02-14T12:41:52;4.97;;;1.00;;
3841;SDS011;1936;47.074;15.336;2024-02-14T12:43:56;2.20;;;1.90;;